Time;durP1;ratioP1;P1;durP2;ratioP2;P2;SDS_P1;SDS_P2;PMS_P1;PMS_P2;Temp;Humidity;BMP_temperature;BMP_pressure;BME280_temperature;BME280_humidity;BME280_pressure;Samples;Min_cycle;Max_cycle;Signal;HPM_P1;HPM_P2
2022/04/08 00:01:54;;;;;;;6.70;4.50;;;;;;;13.04;56.94;99774.69;5117606;28;20552;-55
2022/04/08 00:04:21;;;;;;;8.17;4.60;;;;;;;13.15;56.47;99773.22;5112739;27;20844;-53
2022/04/08 00:06:48;;;;;;;7.72;4.82;;;;;;;13.22;56.30;99775.81;5123919;28;20418;-54
2022/04/08 00:09:15;;;;;;;7.85;4.70;;;;;;;13.16;56.41;99777.50;5110376;28;20410;-55
2022/04/08 00:11:43;;;;;;;7.68;4.43;;;;;;;13.28;56.13;99780.31;5103791;28;20418;-55
2022/04/08 00:14:10;;;;;;;6.07;4.40;;;;;;;13.28;56.03;99777.66;5122167;28;20925;-56
2022/04/08 00:16:38;;;;;;;9.55;4.70;;;;;;;13.27;56.28;99784.00;5125630;27;20419;-53
2022/04/08 00:19:05;;;;;;;6.68;4.20;;;;;;;13.27;56.06;99781.34;5110843;28;20888;-55
2022/04/08 00:21:32;;;;;;;8.98;4.63;;;;;;;13.26;56.20;99780.53;5119488;28;20416;-55
2022/04/08 00:23:59;;;;;;;7.60;4.88;;;;;;;13.22;56.25;99776.66;5117481;28;20415;-54
2022/04/08 00:26:26;;;;;;;8.25;4.80;;;;;;;13.20;56.28;99776.88;5111756;27;20480;-55
2022/04/08 00:28:55;;;;;;;7.38;4.70;;;;;;;13.18;56.14;99778.09;5123263;28;20403;-54
2022/04/08 00:31:22;;;;;;;6.00;4.90;;;;;;;13.11;56.30;99780.78;5112059;28;20486;-55
2022/04/08 00:33:49;;;;;;;7.63;5.15;;;;;;;13.09;56.13;99774.03;5116888;28;20805;-54
2022/04/08 00:36:16;;;;;;;9.30;5.03;;;;;;;13.07;56.40;99776.94;5105992;28;20463;-59
2022/04/08 00:38:43;;;;;;;8.05;5.28;;;;;;;12.92;56.86;99777.16;5110220;28;20413;-54
2022/04/08 00:41:10;;;;;;;8.60;5.13;;;;;;;12.91;56.84;99775.53;5094351;28;20442;-55
2022/04/08 00:43:38;;;;;;;8.20;4.63;;;;;;;12.87;56.89;99774.28;5117139;27;20529;-55
2022/04/08 00:46:10;;;;;;;7.63;4.97;;;;;;;12.86;56.81;99779.84;5112472;28;20963;-53
2022/04/08 00:48:37;;;;;;;9.07;5.10;;;;;;;12.85;56.83;99772.88;5121858;28;20916;-54
2022/04/08 00:51:06;;;;;;;7.88;5.18;;;;;;;12.87;56.81;99774.28;5105531;28;20417;-55
2022/04/08 00:53:33;;;;;;;9.20;5.25;;;;;;;12.90;56.26;99778.41;5105421;28;20937;-54
2022/04/08 00:56:01;;;;;;;7.57;4.95;;;;;;;12.91;55.76;99777.34;5105975;28;20417;-58
2022/04/08 00:58:29;;;;;;;9.25;5.00;;;;;;;12.93;55.84;99776.13;5106017;28;20493;-56
2022/04/08 01:00:56;;;;;;;6.97;4.78;;;;;;;12.98;55.78;99780.81;5105118;28;20797;-55
2022/04/08 01:03:24;;;;;;;8.57;5.13;;;;;;;12.94;55.64;99780.41;5105885;28;20474;-55
2022/04/08 01:05:51;;;;;;;8.05;4.97;;;;;;;12.93;55.76;99775.31;5092034;28;20914;-55
2022/04/08 01:08:18;;;;;;;6.63;4.50;;;;;;;12.89;55.90;99777.59;5091833;28;20417;-54
2022/04/08 01:10:45;;;;;;;6.60;4.35;;;;;;;12.95;55.41;99787.38;5091584;28;20448;-55
2022/04/08 01:13:12;;;;;;;7.45;4.07;;;;;;;13.00;55.48;99792.91;5075933;28;20429;-54
2022/04/08 01:15:39;;;;;;;5.35;3.95;;;;;;;13.13;54.87;99796.56;5091722;28;20845;-54
2022/04/08 01:18:07;;;;;;;5.68;4.20;;;;;;;13.16;54.41;99788.97;5091734;28;20423;-55
2022/04/08 01:20:35;;;;;;;7.03;3.88;;;;;;;13.15;54.47;99797.16;5091609;28;20504;-54
2022/04/08 01:23:03;;;;;;;6.00;4.00;;;;;;;13.23;53.96;99786.28;5091609;28;20501;-54
2022/04/08 01:25:31;;;;;;;7.88;4.38;;;;;;;13.21;54.53;99785.66;5091555;28;20417;-55
2022/04/08 01:28:30;;;;;;;6.45;4.18;;;;;;;13.11;54.92;99783.47;5111885;27;20405;-56
2022/04/08 01:30:57;;;;;;;6.90;4.30;;;;;;;13.11;54.56;99786.13;5089532;28;20414;-55
2022/04/08 01:33:24;;;;;;;5.63;4.03;;;;;;;13.06;54.63;99791.25;5101882;28;20418;-55
2022/04/08 01:38:21;;;;;;;5.47;3.70;;;;;;;12.93;55.00;99786.78;5145283;27;20470;-54
2022/04/08 01:40:48;;;;;;;5.05;3.90;;;;;;;12.92;55.51;99792.31;5069528;28;20424;-55
2022/04/08 01:43:15;;;;;;;7.32;3.70;;;;;;;12.92;55.41;99794.97;5054241;28;20419;-54
2022/04/08 01:45:42;;;;;;;6.38;3.58;;;;;;;12.92;55.58;99787.78;5078934;28;20419;-54
2022/04/08 01:48:09;;;;;;;6.07;3.70;;;;;;;12.94;55.49;99788.41;5077445;28;20418;-54
2022/04/08 01:50:37;;;;;;;6.57;3.17;;;;;;;13.05;55.24;99792.25;5071245;28;20937;-54
2022/04/08 01:53:04;;;;;;;4.10;3.30;;;;;;;13.09;55.23;99796.16;5082503;28;20420;-55
2022/04/08 01:55:32;;;;;;;5.40;3.10;;;;;;;13.14;54.93;99795.50;5072078;28;20426;-56
2022/04/08 01:57:59;;;;;;;5.13;3.43;;;;;;;13.19;54.60;99799.19;5083942;28;20943;-55
2022/04/08 02:00:27;;;;;;;6.17;3.23;;;;;;;13.18;55.05;99800.22;5072861;28;20416;-56
2022/04/08 02:02:53;;;;;;;4.97;3.50;;;;;;;13.20;54.74;99797.34;5082568;28;20420;-55
2022/04/08 02:05:20;;;;;;;76.45;68.28;;;;;;;13.20;54.87;99798.16;5070022;28;20413;-54
2022/04/08 02:07:47;;;;;;;72.60;54.85;;;;;;;13.23;54.80;99799.56;5078179;28;20515;-55
2022/04/08 02:10:14;;;;;;;7.38;5.03;;;;;;;13.32;54.49;99797.53;5077436;28;20421;-55
2022/04/08 02:12:43;;;;;;;14.60;13.43;;;;;;;13.34;54.59;99806.13;5070770;28;20412;-55
2022/04/08 02:15:11;;;;;;;14.43;13.37;;;;;;;13.33;54.36;99804.50;5082052;28;20517;-55
2022/04/08 02:17:38;;;;;;;7.40;6.70;;;;;;;13.30;54.48;99804.88;5072274;28;20835;-54
2022/04/08 02:20:08;;;;;;;42.08;39.17;;;;;;;13.29;54.45;99801.41;5075255;28;20482;-55
2022/04/08 02:22:35;;;;;;;15.43;14.00;;;;;;;13.30;54.43;99797.72;5079926;28;20418;-55
2022/04/08 02:25:03;;;;;;;5.68;5.00;;;;;;;13.29;54.61;99796.09;5068841;28;20991;-54
2022/04/08 02:27:32;;;;;;;14.33;13.03;;;;;;;13.25;54.55;99808.16;5080613;28;20507;-54
2022/04/08 02:30:00;;;;;;;17.20;15.95;;;;;;;13.30;54.20;99800.38;5074497;28;20503;-54
2022/04/08 02:32:27;;;;;;;6.97;6.40;;;;;;;13.29;54.55;99806.75;5072486;28;20419;-54
2022/04/08 02:34:54;;;;;;;5.90;4.30;;;;;;;13.26;54.29;99820.47;5081608;28;20442;-54
2022/04/08 02:37:21;;;;;;;5.43;4.10;;;;;;;13.22;54.61;99816.59;5053891;28;20434;-55
2022/04/08 02:39:49;;;;;;;5.72;4.00;;;;;;;13.20;54.70;99818.66;5078102;28;20416;-54
2022/04/08 02:42:15;;;;;;;4.80;3.80;;;;;;;13.14;54.94;99812.31;5066635;28;20971;-54
2022/04/08 02:44:42;;;;;;;7.68;5.80;;;;;;;13.12;55.01;99817.00;5080224;28;20421;-54
2022/04/08 02:47:11;;;;;;;9.75;8.85;;;;;;;13.09;55.19;99816.59;5068071;28;20946;-54
2022/04/08 02:49:38;;;;;;;4.72;4.15;;;;;;;12.98;55.54;99823.38;5066452;28;20790;-54
2022/04/08 02:52:06;;;;;;;6.05;4.80;;;;;;;12.98;55.56;99834.03;5061631;28;20512;-56
2022/04/08 02:54:33;;;;;;;8.55;5.93;;;;;;;12.96;55.70;99834.25;5058692;28;20420;-55
2022/04/08 02:56:59;;;;;;;6.13;3.67;;;;;;;12.89;55.87;99837.94;5068021;28;20466;-56
2022/04/08 02:59:27;;;;;;;6.68;4.40;;;;;;;12.90;55.99;99843.03;5056005;28;20426;-55
2022/04/08 03:01:54;;;;;;;7.85;7.20;;;;;;;12.92;55.79;99851.63;5057873;28;20417;-55
2022/04/08 03:04:22;;;;;;;5.32;4.82;;;;;;;12.95;55.50;99847.75;5052054;28;20801;-55
2022/04/08 03:06:49;;;;;;;5.30;4.53;;;;;;;12.98;55.54;99849.97;5041916;28;20436;-55
2022/04/08 03:09:16;;;;;;;4.75;3.42;;;;;;;12.88;55.70;99852.25;5050328;28;20420;-55
2022/04/08 03:11:43;;;;;;;5.50;3.55;;;;;;;12.81;55.95;99847.75;5051373;28;20468;-55
2022/04/08 03:14:10;;;;;;;7.53;6.70;;;;;;;12.84;55.73;99849.19;5053337;28;20503;-56
2022/04/08 03:16:37;;;;;;;4.95;4.18;;;;;;;12.85;55.78;99858.00;5044218;28;20425;-56
2022/04/08 03:19:04;;;;;;;5.93;3.63;;;;;;;12.91;55.40;99855.34;5047838;28;20998;-55
2022/04/08 03:21:32;;;;;;;7.15;5.28;;;;;;;12.98;55.14;99850.81;5054228;28;20427;-55
2022/04/08 03:23:59;;;;;;;8.67;7.80;;;;;;;12.94;54.95;99849.56;5042383;28;20526;-55
2022/04/08 03:26:26;;;;;;;6.90;6.20;;;;;;;12.99;54.90;99843.66;5038929;28;20425;-57
2022/04/08 03:28:53;;;;;;;5.85;5.25;;;;;;;12.96;54.92;99850.22;5035762;28;20902;-55
2022/04/08 03:31:20;;;;;;;5.05;3.90;;;;;;;12.97;54.71;99841.19;5036895;28;20848;-55
2022/04/08 03:33:47;;;;;;;4.65;3.55;;;;;;;13.00;54.48;99839.97;5032032;28;20472;-54
2022/04/08 03:36:14;;;;;;;8.65;6.25;;;;;;;13.06;54.28;99847.13;5031561;28;20517;-53
2022/04/08 03:38:43;;;;;;;6.90;5.43;;;;;;;13.01;54.41;99849.56;5034759;28;20468;-54
2022/04/08 03:41:10;;;;;;;5.40;4.68;;;;;;;13.09;54.02;99844.06;5019019;28;20470;-55
2022/04/08 03:43:37;;;;;;;16.75;15.32;;;;;;;13.06;54.08;99848.97;5040029;28;20410;-56
2022/04/08 03:46:04;;;;;;;9.70;8.73;;;;;;;13.10;53.94;99855.50;5030582;28;20417;-56
2022/04/08 03:51:02;;;;;;;9.05;8.25;;;;;;;13.04;54.25;99853.69;5096758;27;20453;-56
2022/04/08 03:53:29;;;;;;;7.97;5.90;;;;;;;13.11;54.09;99873.13;5080445;28;20412;-57
2022/04/08 03:55:56;;;;;;;13.68;9.15;;;;;;;13.10;53.89;99871.47;5079658;28;20406;-55
2022/04/08 03:58:23;;;;;;;15.57;10.52;;;;;;;13.05;53.67;99879.25;5079803;28;20793;-56
2022/04/08 04:00:50;;;;;;;17.80;11.25;;;;;;;13.22;53.24;99879.63;5080648;28;20425;-55
2022/04/08 04:03:17;;;;;;;16.88;11.85;;;;;;;13.34;52.82;99886.81;5080948;28;20406;-55
2022/04/08 04:05:44;;;;;;;13.00;10.13;;;;;;;13.41;52.79;99888.63;5086299;28;20444;-55
2022/04/08 04:08:18;;;;;;;11.55;6.07;;;;;;;13.69;51.93;99899.81;5087636;28;20427;-56
2022/04/08 04:10:45;;;;;;;11.23;4.10;;;;;;;13.69;51.53;99893.69;5081058;28;20432;-53
2022/04/08 04:13:12;;;;;;;5.53;3.23;;;;;;;13.58;51.79;99901.28;5085166;28;20441;-54
2022/04/08 04:15:39;;;;;;;4.97;3.22;;;;;;;13.71;51.19;99903.06;5083577;28;21948;-55
2022/04/08 04:18:06;;;;;;;6.60;3.22;;;;;;;14.34;49.38;99912.22;5082154;28;20464;-53
2022/04/08 04:20:34;;;;;;;5.03;3.00;;;;;;;15.01;47.68;99920.56;5084672;28;20456;-56
2022/04/08 04:23:01;;;;;;;6.60;3.00;;;;;;;15.42;46.66;99905.81;5083935;28;20418;-55
2022/04/08 04:25:29;;;;;;;6.47;4.22;;;;;;;15.89;45.34;99907.19;5086734;28;20416;-55
2022/04/08 04:27:56;;;;;;;7.28;4.22;;;;;;;16.15;44.40;99914.03;5083384;28;20458;-53
2022/04/08 04:30:27;;;;;;;5.03;3.67;;;;;;;16.60;43.01;99908.22;5067486;28;20508;-54
2022/04/08 04:32:56;;;;;;;3.58;2.47;;;;;;;16.93;42.16;99904.25;5086125;28;20468;-53
2022/04/08 04:35:23;;;;;;;4.82;2.60;;;;;;;16.92;42.00;99910.66;5081959;28;20423;-55
2022/04/08 04:37:50;;;;;;;3.47;2.43;;;;;;;17.29;41.26;99916.59;5073735;28;20424;-55
2022/04/08 04:40:17;;;;;;;5.30;2.40;;;;;;;17.94;40.09;99920.94;5086273;28;20505;-56
2022/04/08 04:42:46;;;;;;;4.05;2.40;;;;;;;18.05;39.43;99930.00;5069683;28;20771;-54
2022/04/08 04:45:13;;;;;;;4.05;2.80;;;;;;;18.19;39.08;99935.09;5077940;28;20412;-57
2022/04/08 04:47:40;;;;;;;4.07;2.30;;;;;;;18.50;38.53;99939.16;5074475;28;20418;-55
2022/04/08 04:50:08;;;;;;;6.28;4.20;;;;;;;18.97;37.65;99941.56;5086405;28;20453;-55
2022/04/08 04:52:35;;;;;;;5.90;3.40;;;;;;;19.34;37.06;99934.84;5085701;28;20432;-55
2022/04/08 04:55:02;;;;;;;5.65;3.00;;;;;;;19.81;36.11;99937.94;5084244;28;20432;-56
2022/04/08 04:57:29;;;;;;;6.25;3.28;;;;;;;19.72;36.30;99947.50;5076767;28;20420;-56
2022/04/08 04:59:57;;;;;;;6.50;3.28;;;;;;;20.39;35.37;99938.31;5075423;28;20447;-57
2022/04/08 05:02:24;;;;;;;7.07;3.93;;;;;;;20.43;35.35;99949.38;5049125;28;20415;-57
2022/04/08 05:04:51;;;;;;;6.87;3.50;;;;;;;20.69;34.58;99957.72;5063022;28;21017;-56
2022/04/08 05:07:18;;;;;;;7.85;4.25;;;;;;;20.86;34.64;99961.13;5068913;28;20442;-55
2022/04/08 05:09:45;;;;;;;7.60;4.38;;;;;;;21.93;32.56;99944.84;5061225;28;20646;-56
2022/04/08 05:12:12;;;;;;;7.65;4.13;;;;;;;21.75;32.80;99942.56;5051892;28;20951;-57
2022/04/08 05:14:39;;;;;;;4.07;2.72;;;;;;;22.30;31.90;99956.56;5064802;28;20414;-56
2022/04/08 05:17:07;;;;;;;3.97;2.38;;;;;;;22.77;30.87;99966.34;5049162;28;20413;-57
2022/04/08 05:19:34;;;;;;;3.72;2.10;;;;;;;23.06;30.07;99982.06;5058327;28;20411;-56
2022/04/08 05:22:01;;;;;;;5.05;2.45;;;;;;;23.20;29.89;99982.34;5063902;28;20442;-55
2022/04/08 05:24:29;;;;;;;4.18;2.50;;;;;;;23.44;29.57;99988.81;5065245;28;20460;-57
2022/04/08 05:26:56;;;;;;;4.18;2.45;;;;;;;23.82;28.98;99983.84;5069247;28;20410;-57
2022/04/08 05:29:24;;;;;;;5.75;2.75;;;;;;;23.21;29.35;99997.47;5065545;28;20512;-57
2022/04/08 05:31:51;;;;;;;4.63;2.20;;;;;;;22.02;31.13;99999.13;5063145;28;20410;-56
2022/04/08 05:34:19;;;;;;;3.30;2.25;;;;;;;22.49;30.68;99997.38;5068662;28;20434;-55
2022/04/08 05:36:46;;;;;;;4.35;2.30;;;;;;;23.89;28.29;100002.50;5066156;28;20409;-56
2022/04/08 05:39:13;;;;;;;5.38;2.20;;;;;;;23.92;28.07;100017.38;5066803;28;20411;-54
2022/04/08 05:41:40;;;;;;;4.55;1.88;;;;;;;22.89;29.40;100018.25;5065139;28;20423;-55
2022/04/08 05:44:07;;;;;;;4.53;1.90;;;;;;;25.99;25.43;100007.47;5064561;28;20414;-56
2022/04/08 05:46:34;;;;;;;3.60;2.10;;;;;;;28.31;22.85;100008.81;5066368;28;20442;-55
2022/04/08 05:49:01;;;;;;;2.73;1.90;;;;;;;28.26;22.64;100005.38;5051282;28;20430;-55
2022/04/08 05:51:29;;;;;;;4.47;2.40;;;;;;;28.75;21.97;100012.72;5052834;28;20940;-55
2022/04/08 05:53:56;;;;;;;5.97;2.20;;;;;;;28.46;22.52;100017.75;5065843;28;20572;-56
2022/04/08 05:56:23;;;;;;;3.97;1.92;;;;;;;29.28;21.09;100004.91;5055417;28;20932;-56
2022/04/08 05:58:50;;;;;;;4.47;2.42;;;;;;;30.44;20.02;100020.28;5055250;28;20446;-56
2022/04/08 06:01:17;;;;;;;5.80;2.17;;;;;;;31.29;18.81;100016.22;5060440;28;20423;-56
2022/04/08 06:03:44;;;;;;;3.90;2.23;;;;;;;31.21;18.85;100021.38;5051352;28;20420;-55
2022/04/08 06:06:11;;;;;;;3.33;1.92;;;;;;;30.76;19.23;100021.75;5050844;28;20906;-56
2022/04/08 06:08:39;;;;;;;4.25;2.67;;;;;;;31.24;18.81;100028.13;5051120;28;20412;-58
2022/04/08 06:11:06;;;;;;;4.97;2.10;;;;;;;31.82;18.15;100029.41;5050747;28;20578;-56
2022/04/08 06:13:33;;;;;;;2.43;1.70;;;;;;;33.86;16.41;100024.25;5050120;28;20451;-56
2022/04/08 06:16:00;;;;;;;4.30;1.90;;;;;;;35.34;14.90;100029.34;5050610;28;20412;-56
2022/04/08 06:18:27;;;;;;;3.17;2.20;;;;;;;36.76;14.46;100031.44;5051025;28;20413;-57
2022/04/08 06:20:54;;;;;;;3.72;2.65;;;;;;;38.12;13.25;100033.81;5050630;28;20983;-57
2022/04/08 06:23:21;;;;;;;3.95;2.13;;;;;;;37.94;12.78;100027.16;5050568;28;20413;-57
2022/04/08 06:25:49;;;;;;;4.15;2.28;;;;;;;38.27;12.67;100031.22;5050773;28;20421;-57
2022/04/08 06:28:16;;;;;;;3.63;2.20;;;;;;;39.41;11.99;100023.41;5050596;28;20447;-57
2022/04/08 06:30:43;;;;;;;2.97;2.00;;;;;;;40.08;11.27;100018.75;5050488;28;20471;-57
2022/04/08 06:33:10;;;;;;;2.40;2.10;;;;;;;40.19;11.19;100019.59;5050389;28;21028;-57
2022/04/08 06:35:37;;;;;;;4.32;2.20;;;;;;;41.69;10.13;100012.84;5050630;28;20462;-58
2022/04/08 06:38:06;;;;;;;3.83;2.70;;;;;;;42.28;9.66;100008.72;5050480;28;20435;-58
2022/04/08 06:40:35;;;;;;;3.63;2.40;;;;;;;43.38;9.03;99997.34;5050073;28;20455;-57
2022/04/08 06:43:04;;;;;;;4.35;2.58;;;;;;;43.57;8.58;99996.75;5050125;28;20516;-59
2022/04/08 06:45:31;;;;;;;5.35;2.90;;;;;;;44.36;8.28;100004.28;5050706;28;20443;-58
2022/04/08 06:47:58;;;;;;;3.70;2.10;;;;;;;43.05;8.60;99997.56;5050038;28;20416;-58
2022/04/08 06:50:26;;;;;;;2.65;2.40;;;;;;;43.59;8.32;100011.09;5050344;28;20997;-59
2022/04/08 06:52:59;;;;;;;3.00;2.20;;;;;;;44.60;7.90;100021.94;5049931;28;20419;-58
2022/04/08 06:55:26;;;;;;;4.47;2.30;;;;;;;44.05;8.11;100028.59;5049997;28;20420;-58
2022/04/08 06:57:53;;;;;;;3.50;2.38;;;;;;;45.21;7.38;100023.84;5050265;28;20417;-57
2022/04/08 07:00:22;;;;;;;2.65;2.30;;;;;;;45.62;7.04;100024.78;5050192;28;20460;-58
2022/04/08 07:02:49;;;;;;;2.73;2.17;;;;;;;45.97;6.69;100026.16;5049625;28;20925;-58
2022/04/08 07:05:16;;;;;;;2.58;2.00;;;;;;;44.71;7.35;100026.59;5049765;28;20419;-58
2022/04/08 07:07:45;;;;;;;2.50;2.10;;;;;;;43.98;7.61;100037.84;5049773;28;20456;-59
2022/04/08 07:10:13;;;;;;;3.58;2.00;;;;;;;43.62;7.76;100035.38;5049436;28;20416;-58
2022/04/08 07:12:40;;;;;;;3.40;2.08;;;;;;;43.30;7.98;100038.44;5049852;28;20417;-57
2022/04/08 07:15:07;;;;;;;2.38;1.80;;;;;;;43.52;7.93;100039.84;5049879;28;20412;-56
2022/04/08 07:17:38;;;;;;;7.32;2.25;;;;;;;43.05;8.06;100052.56;5049827;28;20419;-56
2022/04/08 07:20:06;;;;;;;2.70;2.00;;;;;;;43.24;8.12;100049.25;5049332;28;20432;-56
2022/04/08 07:22:34;;;;;;;2.72;2.20;;;;;;;42.68;8.47;100049.16;5049453;28;20412;-58
2022/04/08 07:25:01;;;;;;;2.75;2.15;;;;;;;44.82;7.14;100044.81;5049659;28;20421;-57
2022/04/08 07:27:28;;;;;;;2.60;2.00;;;;;;;45.70;6.82;100057.06;5049371;28;20494;-56
2022/04/08 07:29:55;;;;;;;3.08;2.00;;;;;;;45.49;6.38;100055.41;5049150;28;20455;-57
2022/04/08 07:32:22;;;;;;;2.63;2.30;;;;;;;43.61;7.95;100067.28;5049081;28;20444;-57
2022/04/08 07:36:18;;;;;;;4.77;2.30;;;;;;;42.94;8.54;100075.72;5147218;27;20974;-56
2022/04/08 07:38:45;;;;;;;2.80;1.90;;;;;;;44.15;7.49;100068.81;5127957;27;20841;-55
2022/04/08 07:41:12;;;;;;;4.55;2.00;;;;;;;44.84;6.97;100063.94;5127583;27;20420;-56
2022/04/08 07:43:38;;;;;;;3.27;2.10;;;;;;;42.88;8.21;100062.59;5127771;27;20435;-55
2022/04/08 07:46:05;;;;;;;2.78;2.20;;;;;;;38.63;10.77;100079.59;5127428;27;20431;-55
2022/04/08 07:48:33;;;;;;;3.88;2.20;;;;;;;36.08;13.03;100091.44;5127341;27;20783;-55
2022/04/08 07:51:00;;;;;;;3.05;1.90;;;;;;;33.49;14.82;100097.59;5126906;27;20448;-57
2022/04/08 07:53:28;;;;;;;3.90;2.00;;;;;;;32.10;15.78;100092.00;5127277;27;20438;-55
2022/04/08 07:55:55;;;;;;;3.97;2.30;;;;;;;30.86;16.98;100110.91;5127175;27;20423;-55
2022/04/08 07:58:22;;;;;;;3.45;1.90;;;;;;;29.65;17.45;100118.34;5127328;27;20528;-54
2022/04/08 08:00:53;;;;;;;3.80;2.20;;;;;;;29.14;17.85;100108.69;5127495;27;20421;-54
2022/04/08 08:03:20;;;;;;;5.50;2.25;;;;;;;28.29;18.83;100116.50;5127446;27;20407;-54
2022/04/08 08:05:47;;;;;;;5.47;2.35;;;;;;;27.87;19.54;100112.94;5127219;27;20418;-54
2022/04/08 08:08:14;;;;;;;3.23;1.93;;;;;;;27.39;19.78;100120.28;5127311;27;20827;-55
2022/04/08 08:10:42;;;;;;;3.45;2.22;;;;;;;27.35;20.29;100107.56;5126990;27;20457;-55
2022/04/08 08:13:09;;;;;;;2.92;2.00;;;;;;;27.07;20.77;100119.09;5126926;27;20407;-55
2022/04/08 08:15:37;;;;;;;4.35;1.98;;;;;;;26.48;21.61;100128.59;5127301;27;20865;-54
2022/04/08 08:18:05;;;;;;;3.20;2.00;;;;;;;26.11;20.86;100127.41;5126901;27;20908;-54
2022/04/08 08:20:32;;;;;;;5.18;2.58;;;;;;;26.07;21.20;100134.47;5126914;27;20411;-54
2022/04/08 08:22:59;;;;;;;10.13;3.37;;;;;;;26.25;21.51;100124.78;5127006;27;20417;-54
2022/04/08 08:25:26;;;;;;;5.35;2.38;;;;;;;26.34;21.13;100125.75;5126769;27;20402;-55
2022/04/08 08:27:59;;;;;;;3.88;2.22;;;;;;;25.85;20.95;100127.59;5127216;27;20415;-54
2022/04/08 08:30:29;;;;;;;3.90;2.05;;;;;;;25.44;21.28;100143.44;5126948;27;20782;-53
2022/04/08 08:32:56;;;;;;;6.63;2.25;;;;;;;25.45;21.86;100142.34;5126915;27;20412;-54
2022/04/08 08:35:25;;;;;;;8.23;2.03;;;;;;;25.50;21.73;100140.41;5126341;27;20883;-55
2022/04/08 08:37:52;;;;;;;3.50;1.70;;;;;;;25.07;21.54;100142.84;5126476;27;20505;-55
2022/04/08 08:40:20;;;;;;;4.00;1.80;;;;;;;25.38;21.72;100159.75;5126778;27;20438;-55
2022/04/08 08:42:49;;;;;;;2.97;2.00;;;;;;;25.48;21.38;100148.03;5126701;27;20421;-54
2022/04/08 08:45:18;;;;;;;3.72;2.30;;;;;;;25.50;21.84;100148.56;5126069;27;20399;-54
2022/04/08 08:47:49;;;;;;;2.55;2.08;;;;;;;25.59;21.56;100148.75;5112474;28;20410;-54
2022/04/08 08:50:18;;;;;;;4.67;2.20;;;;;;;25.69;21.34;100156.78;5112964;28;20407;-55
2022/04/08 08:52:50;;;;;;;3.93;2.00;;;;;;;25.58;21.64;100154.47;5112842;28;20418;-54
2022/04/08 08:55:18;;;;;;;2.90;1.80;;;;;;;25.74;22.05;100164.09;5112382;28;20951;-55
2022/04/08 08:57:45;;;;;;;4.20;2.08;;;;;;;25.64;21.82;100166.88;5112389;28;20418;-55
2022/04/08 09:00:16;;;;;;;3.45;1.92;;;;;;;25.85;21.03;100171.03;5112395;28;20415;-56
2022/04/08 09:02:45;;;;;;;3.97;2.00;;;;;;;25.82;21.34;100179.78;5112418;28;20946;-55
2022/04/08 09:05:16;;;;;;;5.28;2.30;;;;;;;26.13;20.84;100172.19;5112284;28;20924;-55
2022/04/08 09:07:43;;;;;;;6.37;3.10;;;;;;;26.72;21.11;100182.16;5112413;28;20439;-55
2022/04/08 09:10:10;;;;;;;6.40;2.60;;;;;;;26.83;20.81;100162.69;5112690;28;20419;-55
2022/04/08 09:12:37;;;;;;;4.43;2.40;;;;;;;26.52;20.82;100154.06;5112525;28;20411;-55
2022/04/08 09:15:05;;;;;;;5.65;2.20;;;;;;;26.22;21.22;100179.72;5093147;28;20951;-55
2022/04/08 09:17:32;;;;;;;3.80;2.00;;;;;;;26.17;21.70;100179.75;5112047;28;20439;-54
2022/04/08 09:20:00;;;;;;;2.55;1.55;;;;;;;25.90;21.99;100173.72;5111663;28;20422;-55
2022/04/08 09:22:30;;;;;;;3.22;1.73;;;;;;;25.40;22.68;100189.31;5111144;27;20468;-54
2022/04/08 09:25:10;;;;;;;4.82;1.80;;;;;;;24.95;23.08;100185.75;5109979;28;20456;-55
2022/04/08 09:27:38;;;;;;;5.72;1.80;;;;;;;24.61;23.51;100181.84;5110977;28;20835;-54
2022/04/08 09:30:07;;;;;;;5.60;2.03;;;;;;;24.64;23.94;100188.59;5110218;28;20499;-55
2022/04/08 09:32:35;;;;;;;4.07;1.77;;;;;;;24.46;24.42;100191.91;5111840;28;20439;-53
2022/04/08 09:35:04;;;;;;;5.00;1.80;;;;;;;24.15;24.40;100190.06;5111594;28;20449;-56
2022/04/08 09:37:31;;;;;;;3.73;1.67;;;;;;;23.52;24.58;100195.72;5111787;28;20458;-54
2022/04/08 09:40:00;;;;;;;4.22;1.50;;;;;;;23.77;24.32;100196.81;5111919;28;20426;-57
2022/04/08 09:42:42;;;;;;;4.07;1.58;;;;;;;23.65;24.37;100195.19;5111652;28;20404;-56
2022/04/08 09:45:10;;;;;;;5.05;1.90;;;;;;;23.76;24.27;100196.00;5111498;28;20798;-55
2022/04/08 09:47:37;;;;;;;7.32;1.90;;;;;;;23.78;25.16;100199.25;5111823;28;20419;-55
2022/04/08 09:50:07;;;;;;;4.97;1.80;;;;;;;24.21;24.56;100207.91;5111701;28;20422;-55
2022/04/08 09:52:34;;;;;;;2.65;1.52;;;;;;;24.23;24.17;100210.34;5111204;28;20490;-56
2022/04/08 09:55:04;;;;;;;3.17;1.50;;;;;;;24.17;24.08;100208.75;5111914;28;20458;-56
2022/04/08 09:57:37;;;;;;;3.70;1.48;;;;;;;24.39;23.81;100216.56;5110414;28;20439;-55
2022/04/08 10:00:07;;;;;;;4.55;2.10;;;;;;;24.30;23.83;100207.38;5111328;28;20901;-55
2022/04/08 10:02:36;;;;;;;3.97;1.85;;;;;;;24.36;24.23;100206.25;5111515;28;20395;-53
2022/04/08 10:05:04;;;;;;;5.05;1.60;;;;;;;24.50;24.39;100201.09;5111188;28;20912;-56
2022/04/08 10:07:32;;;;;;;2.92;1.95;;;;;;;24.40;24.42;100208.16;5111194;28;20484;-54
2022/04/08 10:10:08;;;;;;;5.05;1.70;;;;;;;24.23;23.77;100204.94;5111190;27;20468;-55
2022/04/08 10:12:44;;;;;;;4.53;1.38;;;;;;;23.98;24.04;100197.66;5110993;28;20408;-56
2022/04/08 10:15:17;;;;;;;4.80;2.00;;;;;;;23.88;24.19;100194.94;5110853;28;20892;-55
2022/04/08 10:17:45;;;;;;;3.13;1.60;;;;;;;23.92;24.24;100198.75;5110958;28;20946;-55
2022/04/08 10:20:20;;;;;;;4.18;1.70;;;;;;;23.84;24.14;100202.78;5110896;28;20539;-55
2022/04/08 10:22:49;;;;;;;5.28;1.55;;;;;;;23.75;24.54;100202.50;5111220;28;20403;-56
2022/04/08 10:25:17;;;;;;;4.05;1.70;;;;;;;23.66;24.43;100198.72;5110927;28;20439;-55
2022/04/08 10:27:45;;;;;;;4.90;1.70;;;;;;;23.54;24.88;100201.69;5110968;28;20420;-55
2022/04/08 10:30:14;;;;;;;3.97;1.60;;;;;;;23.73;24.53;100196.53;5110771;28;20807;-55
2022/04/08 10:32:43;;;;;;;2.80;1.45;;;;;;;23.91;24.38;100187.09;5111041;27;20460;-55
2022/04/08 10:35:17;;;;;;;5.97;1.50;;;;;;;23.77;24.44;100186.81;5110730;28;20909;-56
2022/04/08 10:37:57;;;;;;;4.90;1.75;;;;;;;23.95;24.81;100190.91;5110250;28;20443;-56
2022/04/08 10:40:30;;;;;;;4.13;1.63;;;;;;;24.15;24.26;100186.56;5110577;28;20963;-55
2022/04/08 10:42:59;;;;;;;4.20;1.60;;;;;;;24.38;24.20;100177.00;5110860;28;20491;-56
2022/04/08 10:45:26;;;;;;;4.30;1.70;;;;;;;24.65;23.62;100184.00;5110702;28;20462;-56
2022/04/08 10:47:53;;;;;;;2.90;1.40;;;;;;;24.88;23.24;100185.25;5110324;28;20502;-55
2022/04/08 10:50:27;;;;;;;4.30;1.40;;;;;;;24.85;23.61;100183.91;5110316;28;20418;-56
2022/04/08 10:53:10;;;;;;;4.43;1.58;;;;;;;24.87;23.14;100187.16;5110188;28;20868;-56
2022/04/08 10:55:47;;;;;;;4.05;1.63;;;;;;;24.91;22.94;100185.50;5110199;28;20466;-55
2022/04/08 10:58:15;;;;;;;4.00;1.50;;;;;;;24.90;23.15;100186.63;5110083;28;20804;-56
2022/04/08 11:00:43;;;;;;;4.57;1.60;;;;;;;25.00;23.77;100188.44;5110528;28;20443;-55
2022/04/08 11:03:11;;;;;;;3.85;1.70;;;;;;;25.21;22.99;100196.47;5110411;28;20411;-56
2022/04/08 11:05:39;;;;;;;5.00;2.00;;;;;;;25.53;23.60;100190.59;5109967;28;20411;-55
2022/04/08 11:08:08;;;;;;;4.13;1.90;;;;;;;25.40;23.26;100186.59;5110327;28;20469;-57
2022/04/08 11:10:35;;;;;;;4.30;2.08;;;;;;;25.41;23.75;100181.97;5109874;28;20403;-56
2022/04/08 11:13:02;;;;;;;4.05;1.70;;;;;;;24.99;24.07;100181.38;5110141;28;20429;-56
2022/04/08 11:15:31;;;;;;;4.60;2.07;;;;;;;24.72;24.35;100181.78;5109938;28;20774;-56
2022/04/08 11:18:01;;;;;;;3.15;1.60;;;;;;;24.48;24.47;100171.56;5109935;28;20408;-55
2022/04/08 11:20:28;;;;;;;3.57;1.70;;;;;;;24.41;24.71;100185.38;5110162;28;20408;-55
2022/04/08 11:22:58;;;;;;;5.13;1.73;;;;;;;23.94;25.02;100174.94;5109953;28;20412;-56
2022/04/08 11:25:29;;;;;;;3.10;1.60;;;;;;;23.87;25.39;100172.47;5110211;28;20461;-56
2022/04/08 11:28:00;;;;;;;3.47;1.70;;;;;;;23.93;25.25;100170.59;5110091;28;20410;-56
2022/04/08 11:30:28;;;;;;;2.80;1.53;;;;;;;23.93;25.09;100171.41;5109833;28;20439;-56
2022/04/08 11:32:55;;;;;;;6.93;1.73;;;;;;;24.13;25.35;100181.41;5110210;28;20466;-56
2022/04/08 11:35:21;;;;;;;5.55;1.88;;;;;;;24.24;25.74;100168.66;5110068;28;20459;-55
2022/04/08 11:37:49;;;;;;;6.15;2.08;;;;;;;24.34;25.04;100170.50;5109732;28;20754;-56
2022/04/08 11:40:18;;;;;;;3.55;1.80;;;;;;;24.43;24.88;100172.41;5109639;28;20784;-56